Palestine, Illinois
Current Conditions -  °F | °C
As of 8:55 PM on Monday 20 Oct 2014 (Local Time) from KRSV Reporting Station
Clear Clear  
Wind Chill: 57°   Ceiling: Unl
Heat Index: 57°   Visibility: 10mi
Dew Point: 47°   Wind: 7mph
Humidity: 69%   Direction: 300°WNW
Pressure: 29.97"   Gusts: NA
Location:  39°N, 87.61°W
Report Text: KRSV 210155Z AUTO 30006KT 10SM CLR 14/08 A2997 RMK AO2 T01380081
Loading
Personal Weather Stations






























Interactive Weather Map
Tropical Storm Tracking
New forecast layout! Learn more

10-Day Weather Forecast

Advertisements
Track Severe Weather on mobile